Rhame, ND (58651)

6:47 PM MST on December 17, 2014 (GMT -0700)
ND Hwy 67 & 84th St SW | Change Station
CLOSE
Current Station
Personal Weather Station
Location: Scranton, ND
Elevation: 2900 ft
Nearby Weather Stations

Elev 2900 ft 46.21 °N, 103.14 °W | Updated 5 minutes ago

Overcast
Overcast
16.3 °F
Feels Like 3 °F
N
11.4
Wind Variable Wind from SE

Today
High -- | Low -- °F
--% Chance of Precip.
Yesterday
High -- | Low -- °F
Precip. -- in
7:32 AM 4:09 PM
Waning Crescent, 18% visible
Pressure 30.13 in
Visibility 10.0 miles
Clouds Overcast 600 ft
Windchill 3 °F
Dew Point 16 °F
Humidity 98%
Rainfall 0.00 in
Snow Depth Not available.
UV 0 out of 12
Pollen .10 out of 12
Air Quality Not available.
Flu Activity Not available.
METAR KBHK 180051Z AUTO 14010KT 10SM OVC006 M07/M07 A3000 RMK AO2 SLP202 T10671072

More Conditions Fewer Conditions

Pressure 30.13 in
Visibility 10.0 miles
Clouds Overcast 600 ft
Windchill 3 °F
Dew Point 16 °F
Humidity 98%
Rainfall 0.00 in
Snow Depth Not available.
UV 0 out of 12
Pollen .10 out of 12
Air Quality Not available.
Flu Activity Not available.
METAR KBHK 180051Z AUTO 14010KT 10SM OVC006 M07/M07 A3000 RMK AO2 SLP202 T10671072

More Conditions Fewer Conditions

10-Day Weather Forecast

Almanac

Astronomy

Dec. 17, 2014 Rise Set
Actual Time
Civil Twilight
Nautical Twilight
Astronomical Twilight
Moon
Length of Visible Light
Length of Day
Tomorrow will be .
, % of the Moon is Illuminated

Today's Extremes

State Highs State Lows

Community

WunderPhotos

Upload Photos

1,778,846 photos uploaded!

WunderBlogs® & News

Nearby

Air Quality

  Air Quality AQ Index Pollutant
Not available.

Snow Depth

Station Depth Elevation

Earthquake Activity

City Distance Mag. Time & Date
Minimum magnitude displayed is 2.5.

Coastal Water Temperatures

Place Temperature

Nearby Weather Stations